SAS4572 ENGM-ENKR
Flight info
| Callsign | SAS4572 |
|---|---|
| Flight time | 1h 52m |
| Altitude | 37000 |
| Route | RIBBE DCT EGAGO DCT DIGLO DCT OSKIR DCT SIVNU |
| Aircraft | A320/M-SDE3FGHIJ1RWXYZ/ALB1 |
Departure
| Time | 2026-04-15 11:17 |
|---|---|
| Airport | Oslo-Gardermoen International Airport (ENGM) |
Arrival
| Time | 2026-04-15 13:10 |
|---|---|
| Airport | Kirkenes Airport, Høybuktmoen (ENKR) |
| Time | Latitude | Longitude | Altitude | Speed | Heading |
|---|---|---|---|---|---|
| 2026-04-15 10:40 | 60.19573 | 11.09350 | 684 ft | 0 kts | 196° |
| 2026-04-15 11:09 | 60.19586 | 11.09358 | 685 ft | 4 kts | 196° |
| 2026-04-15 11:09 | 60.19612 | 11.09373 | 683 ft | 4 kts | 196° |
| 2026-04-15 11:09 | 60.19620 | 11.09377 | 682 ft | 0 kts | 196° |
| 2026-04-15 11:10 | 60.19620 | 11.09378 | 682 ft | 0 kts | 196° |
| 2026-04-15 11:12 | 60.19616 | 11.09371 | 683 ft | 1 kts | 220° |
| 2026-04-15 11:12 | 60.19619 | 11.09361 | 684 ft | 1 kts | 284° |
| 2026-04-15 11:13 | 60.19625 | 11.09356 | 680 ft | 2 kts | 328° |
| 2026-04-15 11:13 | 60.19653 | 11.09340 | 680 ft | 6 kts | 344° |
| 2026-04-15 11:13 | 60.19699 | 11.09274 | 683 ft | 10 kts | 291° |
| 2026-04-15 11:13 | 60.19721 | 11.09119 | 683 ft | 13 kts | 286° |
| 2026-04-15 11:14 | 60.19749 | 11.08925 | 681 ft | 17 kts | 285° |
| 2026-04-15 11:14 | 60.19774 | 11.08721 | 678 ft | 11 kts | 265° |
| 2026-04-15 11:14 | 60.19714 | 11.08639 | 679 ft | 12 kts | 195° |
| 2026-04-15 11:14 | 60.19627 | 11.08591 | 678 ft | 14 kts | 195° |
| 2026-04-15 11:15 | 60.19550 | 11.08520 | 674 ft | 11 kts | 239° |
| 2026-04-15 11:15 | 60.19560 | 11.08353 | 677 ft | 13 kts | 285° |
| 2026-04-15 11:15 | 60.19607 | 11.08150 | 673 ft | 15 kts | 314° |
| 2026-04-15 11:15 | 60.19642 | 11.08041 | 674 ft | 6 kts | 316° |
| 2026-04-15 11:16 | 60.19668 | 11.08045 | 674 ft | 0 kts | 17° |
| 2026-04-15 11:17 | 60.19764 | 11.08103 | 674 ft | 45 kts | 16° |
| 2026-04-15 11:17 | 60.20282 | 11.08403 | 677 ft | 107 kts | 15° |
| 2026-04-15 11:17 | 60.21152 | 11.08903 | 773 ft | 143 kts | 17° |
| 2026-04-15 11:17 | 60.22083 | 11.09442 | 1423 ft | 140 kts | 18° |
| 2026-04-15 11:18 | 60.23030 | 11.09983 | 1954 ft | 148 kts | 19° |
| 2026-04-15 11:18 | 60.24093 | 11.10597 | 2210 ft | 170 kts | 18° |
| 2026-04-15 11:18 | 60.25296 | 11.11278 | 2456 ft | 194 kts | 15° |
| 2026-04-15 11:18 | 60.26740 | 11.11265 | 2754 ft | 223 kts | 354° |
| 2026-04-15 11:19 | 60.28362 | 11.10773 | 3168 ft | 248 kts | 354° |
| 2026-04-15 11:19 | 60.30132 | 11.10221 | 3756 ft | 264 kts | 354° |
| 2026-04-15 11:19 | 60.31966 | 11.09642 | 4633 ft | 269 kts | 353° |
| 2026-04-15 11:19 | 60.33837 | 11.09126 | 5528 ft | 272 kts | 0° |
| 2026-04-15 11:20 | 60.35702 | 11.09659 | 6374 ft | 273 kts | 22° |
| 2026-04-15 11:20 | 60.37462 | 11.11133 | 7212 ft | 276 kts | 26° |
| 2026-04-15 11:20 | 60.39242 | 11.12661 | 8041 ft | 279 kts | 30° |
| 2026-04-15 11:20 | 60.40746 | 11.15058 | 8851 ft | 276 kts | 52° |
| 2026-04-15 11:21 | 60.42124 | 11.17811 | 9722 ft | 284 kts | 38° |
| 2026-04-15 11:21 | 60.43931 | 11.19555 | 10504 ft | 293 kts | 25° |
| 2026-04-15 11:21 | 60.45904 | 11.21134 | 10762 ft | 316 kts | 24° |
| 2026-04-15 11:21 | 60.48007 | 11.22799 | 11165 ft | 330 kts | 24° |
| 2026-04-15 11:22 | 60.50163 | 11.24494 | 11846 ft | 334 kts | 23° |
| 2026-04-15 11:22 | 60.52343 | 11.26207 | 12563 ft | 338 kts | 23° |
| 2026-04-15 11:22 | 60.54543 | 11.27942 | 13262 ft | 341 kts | 22° |
| 2026-04-15 11:22 | 60.56763 | 11.29700 | 13997 ft | 344 kts | 21° |
| 2026-04-15 11:23 | 60.59007 | 11.31485 | 14605 ft | 348 kts | 21° |
| 2026-04-15 11:23 | 60.61268 | 11.33297 | 15251 ft | 350 kts | 21° |
| 2026-04-15 11:23 | 60.63540 | 11.35123 | 15926 ft | 352 kts | 21° |
| 2026-04-15 11:23 | 60.64797 | 11.36133 | 16293 ft | 352 kts | 21° |
| 2026-04-15 11:24 | 60.67080 | 11.37970 | 16998 ft | 353 kts | 21° |
| 2026-04-15 11:24 | 60.69370 | 11.39814 | 17658 ft | 355 kts | 21° |
| 2026-04-15 11:24 | 60.71643 | 11.41649 | 18291 ft | 357 kts | 21° |
| 2026-04-15 11:24 | 60.73551 | 11.43196 | 18809 ft | 359 kts | 21° |
| 2026-04-15 11:25 | 60.74265 | 11.43774 | 18953 ft | 360 kts | 21° |
| 2026-04-15 11:25 | 60.76605 | 11.45670 | 19501 ft | 364 kts | 21° |
| 2026-04-15 11:25 | 60.78961 | 11.47579 | 20082 ft | 366 kts | 21° |
| 2026-04-15 11:25 | 60.81336 | 11.49504 | 20654 ft | 368 kts | 21° |
| 2026-04-15 11:26 | 60.83731 | 11.51452 | 21192 ft | 372 kts | 21° |
| 2026-04-15 11:26 | 60.86145 | 11.53417 | 21726 ft | 375 kts | 21° |
| 2026-04-15 11:26 | 60.88584 | 11.55403 | 22216 ft | 379 kts | 21° |
| 2026-04-15 11:26 | 60.91046 | 11.57411 | 22736 ft | 382 kts | 21° |
| 2026-04-15 11:27 | 60.93527 | 11.59438 | 23278 ft | 385 kts | 20° |
| 2026-04-15 11:27 | 60.96027 | 11.61489 | 23784 ft | 389 kts | 21° |
| 2026-04-15 11:27 | 60.98546 | 11.63559 | 24247 ft | 391 kts | 21° |
| 2026-04-15 11:27 | 61.01088 | 11.65643 | 24661 ft | 394 kts | 21° |
| 2026-04-15 11:28 | 61.03645 | 11.67745 | 25061 ft | 397 kts | 21° |
| 2026-04-15 11:28 | 61.06223 | 11.69872 | 25487 ft | 400 kts | 20° |
| 2026-04-15 11:28 | 61.08810 | 11.72014 | 25874 ft | 403 kts | 21° |
| 2026-04-15 11:28 | 61.11421 | 11.74176 | 26272 ft | 405 kts | 21° |
| 2026-04-15 11:29 | 61.14049 | 11.76353 | 26642 ft | 409 kts | 21° |
| 2026-04-15 11:29 | 61.16700 | 11.78556 | 27000 ft | 412 kts | 21° |
| 2026-04-15 11:29 | 61.19365 | 11.80776 | 27379 ft | 414 kts | 21° |
| 2026-04-15 11:29 | 61.22044 | 11.83019 | 27732 ft | 417 kts | 21° |
| 2026-04-15 11:30 | 61.24712 | 11.85254 | 28085 ft | 420 kts | 21° |
| 2026-04-15 11:30 | 61.27465 | 11.87559 | 28437 ft | 423 kts | 21° |
| 2026-04-15 11:30 | 61.30203 | 11.89854 | 28789 ft | 426 kts | 21° |
| 2026-04-15 11:30 | 61.32957 | 11.92167 | 29135 ft | 428 kts | 21° |
| 2026-04-15 11:31 | 61.35694 | 11.94470 | 29460 ft | 431 kts | 21° |
| 2026-04-15 11:31 | 61.38481 | 11.96824 | 29798 ft | 434 kts | 21° |
| 2026-04-15 11:31 | 61.41289 | 11.99201 | 30107 ft | 438 kts | 20° |
| 2026-04-15 11:31 | 61.44127 | 12.01606 | 30352 ft | 443 kts | 21° |
| 2026-04-15 11:32 | 61.46987 | 12.04031 | 30696 ft | 443 kts | 21° |
| 2026-04-15 11:32 | 61.49846 | 12.06455 | 31060 ft | 444 kts | 21° |
| 2026-04-15 11:32 | 61.52707 | 12.08888 | 31432 ft | 444 kts | 21° |
| 2026-04-15 11:32 | 61.55559 | 12.11322 | 31876 ft | 442 kts | 20° |
| 2026-04-15 11:33 | 61.58404 | 12.13754 | 32310 ft | 441 kts | 20° |
| 2026-04-15 11:33 | 61.61242 | 12.16189 | 32734 ft | 440 kts | 21° |
| 2026-04-15 11:33 | 61.64071 | 12.18625 | 33180 ft | 439 kts | 21° |
| 2026-04-15 11:33 | 61.66845 | 12.21305 | 33603 ft | 439 kts | 28° |
| 2026-04-15 11:34 | 61.69400 | 12.24838 | 34003 ft | 441 kts | 37° |
| 2026-04-15 11:34 | 61.71763 | 12.28960 | 34379 ft | 441 kts | 38° |
| 2026-04-15 11:34 | 61.74120 | 12.33114 | 34703 ft | 441 kts | 38° |
| 2026-04-15 11:34 | 61.76475 | 12.37265 | 35022 ft | 441 kts | 38° |
| 2026-04-15 11:35 | 61.78830 | 12.41418 | 35322 ft | 441 kts | 38° |
| 2026-04-15 11:35 | 61.80103 | 12.43665 | 35490 ft | 441 kts | 38° |
| 2026-04-15 11:35 | 61.82423 | 12.47784 | 35770 ft | 441 kts | 38° |
| 2026-04-15 11:35 | 61.84771 | 12.51955 | 36055 ft | 441 kts | 38° |
| 2026-04-15 11:36 | 61.87121 | 12.56134 | 36343 ft | 441 kts | 38° |
| 2026-04-15 11:36 | 61.89469 | 12.60313 | 36617 ft | 441 kts | 38° |
| 2026-04-15 11:36 | 61.91817 | 12.64498 | 36887 ft | 441 kts | 38° |
| 2026-04-15 11:36 | 61.94163 | 12.68691 | 37151 ft | 441 kts | 38° |
| 2026-04-15 11:37 | 61.96511 | 12.72899 | 37334 ft | 442 kts | 39° |
| 2026-04-15 11:37 | 61.98869 | 12.77130 | 37374 ft | 444 kts | 38° |
| 2026-04-15 11:37 | 62.02252 | 12.83230 | 37372 ft | 445 kts | 39° |
| 2026-04-15 11:38 | 62.06975 | 12.91771 | 37369 ft | 445 kts | 39° |
| 2026-04-15 11:38 | 62.11690 | 13.00336 | 37368 ft | 445 kts | 39° |
| 2026-04-15 11:39 | 62.14056 | 13.04632 | 37370 ft | 445 kts | 39° |
| 2026-04-15 11:39 | 62.18770 | 13.13241 | 37377 ft | 446 kts | 39° |
| 2026-04-15 11:40 | 62.23449 | 13.21848 | 37380 ft | 447 kts | 39° |
| 2026-04-15 11:40 | 62.28168 | 13.30536 | 37376 ft | 447 kts | 39° |
| 2026-04-15 11:41 | 62.31154 | 13.36034 | 37377 ft | 448 kts | 39° |
| 2026-04-15 11:41 | 62.35879 | 13.44780 | 37379 ft | 448 kts | 39° |
| 2026-04-15 11:42 | 62.40589 | 13.53563 | 37382 ft | 448 kts | 39° |
| 2026-04-15 11:42 | 62.45293 | 13.62393 | 37377 ft | 448 kts | 39° |
| 2026-04-15 11:43 | 62.49996 | 13.71255 | 37381 ft | 449 kts | 40° |
| 2026-04-15 11:43 | 62.54703 | 13.80149 | 37378 ft | 449 kts | 40° |
| 2026-04-15 11:44 | 62.58141 | 13.86665 | 37383 ft | 449 kts | 39° |
| 2026-04-15 11:44 | 62.62850 | 13.95596 | 37383 ft | 449 kts | 39° |
| 2026-04-15 11:45 | 62.66699 | 14.02942 | 37381 ft | 449 kts | 40° |
| 2026-04-15 11:45 | 62.70639 | 14.10483 | 37385 ft | 449 kts | 39° |
| 2026-04-15 11:46 | 62.74281 | 14.17487 | 37391 ft | 450 kts | 40° |
| 2026-04-15 11:46 | 62.78874 | 14.26359 | 37390 ft | 450 kts | 40° |
| 2026-04-15 11:47 | 62.82497 | 14.33388 | 37389 ft | 451 kts | 40° |
| 2026-04-15 11:47 | 62.85631 | 14.39497 | 37389 ft | 451 kts | 40° |
| 2026-04-15 11:48 | 62.90558 | 14.47943 | 37386 ft | 449 kts | 35° |
| 2026-04-15 11:48 | 62.95580 | 14.56119 | 37382 ft | 449 kts | 35° |
| 2026-04-15 11:49 | 63.00595 | 14.64337 | 37382 ft | 449 kts | 35° |
| 2026-04-15 11:49 | 63.05598 | 14.72588 | 37376 ft | 450 kts | 35° |
| 2026-04-15 11:50 | 63.10605 | 14.80870 | 37376 ft | 450 kts | 35° |
| 2026-04-15 11:50 | 63.15609 | 14.89176 | 37377 ft | 450 kts | 35° |
| 2026-04-15 11:51 | 63.20611 | 14.97521 | 37379 ft | 450 kts | 35° |
| 2026-04-15 11:51 | 63.25612 | 15.05887 | 37404 ft | 450 kts | 35° |
| 2026-04-15 11:52 | 63.30605 | 15.14305 | 37399 ft | 451 kts | 36° |
| 2026-04-15 11:52 | 63.35596 | 15.22761 | 37399 ft | 451 kts | 36° |
| 2026-04-15 11:53 | 63.40555 | 15.31185 | 37398 ft | 451 kts | 36° |
| 2026-04-15 11:53 | 63.45575 | 15.39756 | 37401 ft | 451 kts | 36° |
| 2026-04-15 11:54 | 63.50527 | 15.48239 | 37404 ft | 452 kts | 36° |
| 2026-04-15 11:54 | 63.55512 | 15.56823 | 37411 ft | 452 kts | 36° |
| 2026-04-15 11:55 | 63.60495 | 15.65423 | 37406 ft | 452 kts | 36° |
| 2026-04-15 11:55 | 63.65472 | 15.74069 | 37402 ft | 452 kts | 36° |
| 2026-04-15 11:56 | 63.70442 | 15.82744 | 37401 ft | 452 kts | 37° |
| 2026-04-15 11:56 | 63.75405 | 15.91455 | 37406 ft | 452 kts | 37° |
| 2026-04-15 11:57 | 63.82851 | 16.04591 | 37410 ft | 453 kts | 37° |
| 2026-04-15 11:58 | 63.86973 | 16.11897 | 37412 ft | 453 kts | 37° |
| 2026-04-15 11:58 | 63.91928 | 16.20718 | 37410 ft | 453 kts | 37° |
| 2026-04-15 11:59 | 63.96876 | 16.29562 | 37409 ft | 452 kts | 37° |
| 2026-04-15 11:59 | 64.01823 | 16.38438 | 37411 ft | 452 kts | 37° |
| 2026-04-15 12:00 | 64.06760 | 16.47337 | 37416 ft | 452 kts | 37° |
| 2026-04-15 12:00 | 64.11688 | 16.56268 | 37415 ft | 452 kts | 37° |
| 2026-04-15 12:01 | 64.16608 | 16.65253 | 37411 ft | 452 kts | 37° |
| 2026-04-15 12:01 | 64.21529 | 16.74271 | 37421 ft | 453 kts | 37° |
| 2026-04-15 12:02 | 64.26446 | 16.83319 | 37413 ft | 453 kts | 37° |
| 2026-04-15 12:02 | 64.31365 | 16.92383 | 37425 ft | 453 kts | 37° |
| 2026-04-15 12:03 | 64.36271 | 17.01494 | 37428 ft | 452 kts | 38° |
| 2026-04-15 12:03 | 64.41162 | 17.10614 | 37434 ft | 452 kts | 38° |
| 2026-04-15 12:04 | 64.46047 | 17.19769 | 37427 ft | 452 kts | 38° |
| 2026-04-15 12:04 | 64.50919 | 17.28952 | 37422 ft | 451 kts | 38° |
| 2026-04-15 12:05 | 64.55789 | 17.38164 | 37421 ft | 451 kts | 38° |
| 2026-04-15 12:05 | 64.60646 | 17.47405 | 37435 ft | 451 kts | 38° |
| 2026-04-15 12:06 | 64.65503 | 17.56677 | 37424 ft | 451 kts | 38° |
| 2026-04-15 12:06 | 64.70352 | 17.65980 | 37424 ft | 451 kts | 38° |
| 2026-04-15 12:07 | 64.75194 | 17.75322 | 37420 ft | 451 kts | 38° |
| 2026-04-15 12:07 | 64.79998 | 17.84630 | 37419 ft | 451 kts | 38° |
| 2026-04-15 12:08 | 64.84826 | 17.94044 | 37422 ft | 451 kts | 38° |
| 2026-04-15 12:08 | 64.89647 | 18.03483 | 37425 ft | 451 kts | 38° |
| 2026-04-15 12:09 | 64.94467 | 18.12946 | 37422 ft | 451 kts | 38° |
| 2026-04-15 12:09 | 64.99280 | 18.22445 | 37420 ft | 451 kts | 39° |
| 2026-04-15 12:10 | 65.04091 | 18.31978 | 37421 ft | 451 kts | 39° |
| 2026-04-15 12:10 | 65.08889 | 18.41572 | 37413 ft | 451 kts | 39° |
| 2026-04-15 12:11 | 65.13684 | 18.51202 | 37426 ft | 452 kts | 39° |
| 2026-04-15 12:11 | 65.18479 | 18.60859 | 37424 ft | 452 kts | 39° |
| 2026-04-15 12:12 | 65.23272 | 18.70552 | 37416 ft | 452 kts | 39° |
| 2026-04-15 12:12 | 65.28053 | 18.80291 | 37417 ft | 452 kts | 39° |
| 2026-04-15 12:13 | 65.32833 | 18.90061 | 37415 ft | 452 kts | 39° |
| 2026-04-15 12:13 | 65.37614 | 18.99852 | 37415 ft | 452 kts | 39° |
| 2026-04-15 12:14 | 65.42351 | 19.09623 | 37410 ft | 452 kts | 39° |
| 2026-04-15 12:14 | 65.47109 | 19.19509 | 37403 ft | 452 kts | 40° |
| 2026-04-15 12:15 | 65.51868 | 19.29428 | 37397 ft | 452 kts | 40° |
| 2026-04-15 12:15 | 65.56615 | 19.39391 | 37394 ft | 452 kts | 40° |
| 2026-04-15 12:16 | 65.61358 | 19.49397 | 37393 ft | 452 kts | 40° |
| 2026-04-15 12:16 | 65.66088 | 19.59437 | 37405 ft | 452 kts | 40° |
| 2026-04-15 12:17 | 65.70899 | 19.69265 | 37394 ft | 452 kts | 38° |
| 2026-04-15 12:17 | 65.75818 | 19.78809 | 37393 ft | 452 kts | 37° |
| 2026-04-15 12:18 | 65.80742 | 19.88356 | 37395 ft | 453 kts | 37° |
| 2026-04-15 12:18 | 65.85636 | 19.98039 | 37394 ft | 453 kts | 38° |
| 2026-04-15 12:19 | 65.90514 | 20.07807 | 37387 ft | 454 kts | 38° |
| 2026-04-15 12:19 | 65.95404 | 20.17612 | 37390 ft | 454 kts | 38° |
| 2026-04-15 12:20 | 66.00296 | 20.27452 | 37387 ft | 455 kts | 38° |
| 2026-04-15 12:20 | 66.05184 | 20.37340 | 37385 ft | 455 kts | 38° |
| 2026-04-15 12:21 | 66.10062 | 20.47289 | 37382 ft | 455 kts | 38° |
| 2026-04-15 12:21 | 66.14935 | 20.57268 | 37381 ft | 455 kts | 38° |
| 2026-04-15 12:22 | 66.19811 | 20.67281 | 37387 ft | 456 kts | 38° |
| 2026-04-15 12:22 | 66.24650 | 20.77280 | 37382 ft | 456 kts | 39° |
| 2026-04-15 12:23 | 66.29518 | 20.87409 | 37382 ft | 457 kts | 39° |
| 2026-04-15 12:23 | 66.34382 | 20.97573 | 37382 ft | 457 kts | 39° |
| 2026-04-15 12:24 | 66.39250 | 21.07773 | 37381 ft | 457 kts | 39° |
| 2026-04-15 12:24 | 66.44104 | 21.18024 | 37382 ft | 457 kts | 39° |
| 2026-04-15 12:25 | 66.48949 | 21.28327 | 37385 ft | 457 kts | 39° |
| 2026-04-15 12:25 | 66.53794 | 21.38654 | 37384 ft | 457 kts | 39° |
| 2026-04-15 12:26 | 66.58630 | 21.49028 | 37381 ft | 457 kts | 39° |
| 2026-04-15 12:26 | 66.63462 | 21.59424 | 37382 ft | 457 kts | 39° |
| 2026-04-15 12:27 | 66.68284 | 21.69870 | 37382 ft | 457 kts | 39° |
| 2026-04-15 12:27 | 66.73101 | 21.80369 | 37391 ft | 457 kts | 40° |
| 2026-04-15 12:28 | 66.77910 | 21.90922 | 37369 ft | 458 kts | 40° |
| 2026-04-15 12:28 | 66.82728 | 22.01540 | 37362 ft | 459 kts | 40° |
| 2026-04-15 12:29 | 66.87555 | 22.12207 | 37364 ft | 460 kts | 40° |
| 2026-04-15 12:29 | 66.92372 | 22.22939 | 37369 ft | 461 kts | 40° |
| 2026-04-15 12:30 | 66.97183 | 22.33736 | 37383 ft | 461 kts | 40° |
| 2026-04-15 12:30 | 67.01998 | 22.44585 | 37375 ft | 461 kts | 40° |
| 2026-04-15 12:31 | 67.06813 | 22.55471 | 37370 ft | 462 kts | 40° |
| 2026-04-15 12:31 | 67.11624 | 22.66417 | 37367 ft | 462 kts | 40° |
| 2026-04-15 12:32 | 67.16427 | 22.77417 | 37366 ft | 462 kts | 40° |
| 2026-04-15 12:32 | 67.21200 | 22.88385 | 37367 ft | 463 kts | 41° |
| 2026-04-15 12:33 | 67.25994 | 22.99489 | 37378 ft | 464 kts | 41° |
| 2026-04-15 12:33 | 67.30789 | 23.10653 | 37374 ft | 464 kts | 41° |
| 2026-04-15 12:34 | 67.35577 | 23.21866 | 37372 ft | 464 kts | 41° |
| 2026-04-15 12:34 | 67.40360 | 23.33124 | 37371 ft | 464 kts | 41° |
| 2026-04-15 12:35 | 67.45137 | 23.44434 | 37376 ft | 464 kts | 41° |
| 2026-04-15 12:35 | 67.49905 | 23.55805 | 37390 ft | 464 kts | 41° |
| 2026-04-15 12:36 | 67.54665 | 23.67198 | 37382 ft | 464 kts | 41° |
| 2026-04-15 12:36 | 67.59424 | 23.78637 | 37381 ft | 464 kts | 41° |
| 2026-04-15 12:37 | 67.64172 | 23.90130 | 37376 ft | 464 kts | 42° |
| 2026-04-15 12:37 | 67.68908 | 24.01700 | 37359 ft | 465 kts | 42° |
| 2026-04-15 12:38 | 67.73646 | 24.13323 | 37362 ft | 466 kts | 42° |
| 2026-04-15 12:38 | 67.78385 | 24.24990 | 37365 ft | 466 kts | 43° |
| 2026-04-15 12:39 | 67.83121 | 24.36719 | 37365 ft | 467 kts | 43° |
| 2026-04-15 12:39 | 67.87827 | 24.48458 | 37363 ft | 467 kts | 43° |
| 2026-04-15 12:40 | 67.92556 | 24.60320 | 37370 ft | 468 kts | 43° |
| 2026-04-15 12:40 | 67.97282 | 24.72231 | 37377 ft | 468 kts | 43° |
| 2026-04-15 12:41 | 68.01998 | 24.84195 | 37392 ft | 468 kts | 43° |
| 2026-04-15 12:41 | 68.06710 | 24.96232 | 37394 ft | 469 kts | 43° |
| 2026-04-15 12:42 | 68.11420 | 25.08317 | 37392 ft | 469 kts | 43° |
| 2026-04-15 12:42 | 68.16124 | 25.20463 | 37389 ft | 469 kts | 44° |
| 2026-04-15 12:43 | 68.20823 | 25.32666 | 37399 ft | 470 kts | 44° |
| 2026-04-15 12:43 | 68.25511 | 25.44906 | 37397 ft | 470 kts | 44° |
| 2026-04-15 12:44 | 68.30190 | 25.57234 | 37405 ft | 470 kts | 44° |
| 2026-04-15 12:44 | 68.34868 | 25.69612 | 37404 ft | 470 kts | 44° |
| 2026-04-15 12:45 | 68.39536 | 25.82037 | 37403 ft | 471 kts | 44° |
| 2026-04-15 12:45 | 68.43409 | 25.92419 | 37403 ft | 471 kts | 44° |
| 2026-04-15 12:46 | 68.48061 | 26.04937 | 37405 ft | 471 kts | 45° |
| 2026-04-15 12:46 | 68.52709 | 26.17507 | 37390 ft | 471 kts | 45° |
| 2026-04-15 12:47 | 68.57352 | 26.30176 | 37388 ft | 472 kts | 45° |
| 2026-04-15 12:47 | 68.61987 | 26.42916 | 37181 ft | 471 kts | 45° |
| 2026-04-15 12:47 | 68.64295 | 26.49284 | 36927 ft | 470 kts | 45° |
| 2026-04-15 12:48 | 68.66600 | 26.55660 | 36671 ft | 470 kts | 46° |
| 2026-04-15 12:48 | 68.68900 | 26.62033 | 36421 ft | 470 kts | 46° |
| 2026-04-15 12:48 | 68.71205 | 26.68426 | 36174 ft | 471 kts | 46° |
| 2026-04-15 12:48 | 68.73477 | 26.74764 | 35934 ft | 471 kts | 46° |
| 2026-04-15 12:49 | 68.75777 | 26.81196 | 35692 ft | 472 kts | 46° |
| 2026-04-15 12:49 | 68.78081 | 26.87659 | 35460 ft | 473 kts | 46° |
| 2026-04-15 12:49 | 68.80383 | 26.94132 | 34970 ft | 473 kts | 47° |
| 2026-04-15 12:49 | 68.82688 | 27.00637 | 34349 ft | 474 kts | 47° |
| 2026-04-15 12:50 | 68.84995 | 27.07180 | 33580 ft | 476 kts | 48° |
| 2026-04-15 12:50 | 68.87312 | 27.13780 | 32733 ft | 480 kts | 48° |
| 2026-04-15 12:50 | 68.89655 | 27.20465 | 31855 ft | 486 kts | 49° |
| 2026-04-15 12:50 | 68.92020 | 27.27228 | 31059 ft | 489 kts | 49° |
| 2026-04-15 12:51 | 68.94389 | 27.34020 | 30405 ft | 489 kts | 50° |
| 2026-04-15 12:51 | 68.96748 | 27.40806 | 29713 ft | 487 kts | 50° |
| 2026-04-15 12:51 | 68.99088 | 27.47577 | 29126 ft | 483 kts | 50° |
| 2026-04-15 12:51 | 69.01404 | 27.54292 | 28556 ft | 479 kts | 50° |
| 2026-04-15 12:52 | 69.03702 | 27.60963 | 28013 ft | 474 kts | 50° |
| 2026-04-15 12:52 | 69.05979 | 27.67579 | 27469 ft | 470 kts | 50° |
| 2026-04-15 12:52 | 69.08229 | 27.74146 | 26959 ft | 466 kts | 50° |
| 2026-04-15 12:52 | 69.10461 | 27.80689 | 26455 ft | 462 kts | 51° |
| 2026-04-15 12:53 | 69.12667 | 27.87192 | 25974 ft | 458 kts | 51° |
| 2026-04-15 12:53 | 69.14850 | 27.93657 | 25505 ft | 455 kts | 51° |
| 2026-04-15 12:53 | 69.17015 | 28.00096 | 25059 ft | 452 kts | 51° |
| 2026-04-15 12:53 | 69.19161 | 28.06504 | 24628 ft | 449 kts | 51° |
| 2026-04-15 12:54 | 69.21291 | 28.12870 | 24211 ft | 445 kts | 51° |
| 2026-04-15 12:54 | 69.23411 | 28.19209 | 23784 ft | 443 kts | 51° |
| 2026-04-15 12:54 | 69.25514 | 28.25505 | 23339 ft | 439 kts | 51° |
| 2026-04-15 12:54 | 69.27593 | 28.31740 | 22937 ft | 434 kts | 51° |
| 2026-04-15 12:55 | 69.29647 | 28.37933 | 22533 ft | 429 kts | 51° |
| 2026-04-15 12:55 | 69.31671 | 28.44071 | 22101 ft | 425 kts | 51° |
| 2026-04-15 12:55 | 69.33677 | 28.50179 | 21667 ft | 422 kts | 51° |
| 2026-04-15 12:55 | 69.35664 | 28.56234 | 21197 ft | 417 kts | 50° |
| 2026-04-15 12:56 | 69.37629 | 28.62228 | 20771 ft | 413 kts | 50° |
| 2026-04-15 12:56 | 69.39575 | 28.68178 | 20314 ft | 410 kts | 50° |
| 2026-04-15 12:56 | 69.41485 | 28.74038 | 19864 ft | 406 kts | 50° |
| 2026-04-15 12:56 | 69.43396 | 28.79909 | 19398 ft | 403 kts | 50° |
| 2026-04-15 12:57 | 69.45289 | 28.85753 | 18959 ft | 400 kts | 50° |
| 2026-04-15 12:57 | 69.47167 | 28.91575 | 18469 ft | 397 kts | 50° |
| 2026-04-15 12:57 | 69.49024 | 28.97360 | 17970 ft | 393 kts | 50° |
| 2026-04-15 12:57 | 69.50860 | 29.03090 | 17505 ft | 389 kts | 50° |
| 2026-04-15 12:58 | 69.52677 | 29.08768 | 17025 ft | 385 kts | 50° |
| 2026-04-15 12:58 | 69.54473 | 29.14398 | 16568 ft | 382 kts | 49° |
| 2026-04-15 12:58 | 69.56251 | 29.19984 | 16113 ft | 378 kts | 49° |
| 2026-04-15 12:58 | 69.57902 | 29.25599 | 15506 ft | 369 kts | 57° |
| 2026-04-15 12:59 | 69.60766 | 29.37563 | 13881 ft | 359 kts | 57° |
| 2026-04-15 12:59 | 69.62159 | 29.43433 | 13059 ft | 353 kts | 57° |
| 2026-04-15 12:59 | 69.63528 | 29.49218 | 12240 ft | 348 kts | 57° |
| 2026-04-15 13:00 | 69.64887 | 29.54970 | 11737 ft | 346 kts | 57° |
| 2026-04-15 13:00 | 69.66232 | 29.60670 | 11317 ft | 343 kts | 57° |
| 2026-04-15 13:00 | 69.67565 | 29.66327 | 10918 ft | 339 kts | 57° |
| 2026-04-15 13:00 | 69.68842 | 29.71767 | 10767 ft | 317 kts | 57° |
| 2026-04-15 13:01 | 69.70048 | 29.76906 | 10378 ft | 305 kts | 57° |
| 2026-04-15 13:01 | 69.71223 | 29.81920 | 9759 ft | 300 kts | 57° |
| 2026-04-15 13:01 | 69.72405 | 29.86822 | 9125 ft | 297 kts | 51° |
| 2026-04-15 13:01 | 69.73781 | 29.91217 | 8502 ft | 294 kts | 46° |
| 2026-04-15 13:02 | 69.75177 | 29.95533 | 7984 ft | 295 kts | 46° |
| 2026-04-15 13:02 | 69.76574 | 29.99853 | 7677 ft | 294 kts | 45° |
| 2026-04-15 13:02 | 69.77964 | 30.04155 | 7401 ft | 291 kts | 45° |
| 2026-04-15 13:02 | 69.79332 | 30.08410 | 7148 ft | 287 kts | 45° |
| 2026-04-15 13:03 | 69.80680 | 30.12617 | 6898 ft | 283 kts | 45° |
| 2026-04-15 13:03 | 69.82009 | 30.16760 | 6688 ft | 278 kts | 45° |
| 2026-04-15 13:03 | 69.83286 | 30.20766 | 6553 ft | 262 kts | 46° |
| 2026-04-15 13:03 | 69.84175 | 30.25132 | 6404 ft | 244 kts | 74° |
| 2026-04-15 13:04 | 69.84316 | 30.29815 | 6212 ft | 228 kts | 101° |
| 2026-04-15 13:04 | 69.83819 | 30.33968 | 6007 ft | 213 kts | 125° |
| 2026-04-15 13:04 | 69.82853 | 30.37070 | 5728 ft | 203 kts | 150° |
| 2026-04-15 13:04 | 69.81600 | 30.38580 | 5399 ft | 193 kts | 176° |
| 2026-04-15 13:05 | 69.80293 | 30.38393 | 5010 ft | 187 kts | 200° |
| 2026-04-15 13:05 | 69.79181 | 30.36717 | 4627 ft | 183 kts | 223° |
| 2026-04-15 13:05 | 69.78418 | 30.33908 | 4361 ft | 176 kts | 244° |
| 2026-04-15 13:05 | 69.77974 | 30.30621 | 4100 ft | 175 kts | 249° |
| 2026-04-15 13:06 | 69.77554 | 30.27359 | 3844 ft | 171 kts | 249° |
| 2026-04-15 13:06 | 69.77143 | 30.24174 | 3578 ft | 166 kts | 249° |
| 2026-04-15 13:06 | 69.76742 | 30.21085 | 3321 ft | 164 kts | 248° |
| 2026-04-15 13:06 | 69.76360 | 30.18144 | 3058 ft | 146 kts | 249° |
| 2026-04-15 13:07 | 69.76015 | 30.15497 | 2836 ft | 136 kts | 248° |
| 2026-04-15 13:07 | 69.75691 | 30.12976 | 2549 ft | 132 kts | 246° |
| 2026-04-15 13:07 | 69.75361 | 30.10522 | 2295 ft | 131 kts | 246° |
| 2026-04-15 13:07 | 69.75046 | 30.08067 | 1980 ft | 130 kts | 248° |
| 2026-04-15 13:08 | 69.74737 | 30.05633 | 1634 ft | 128 kts | 247° |
| 2026-04-15 13:08 | 69.74422 | 30.03230 | 1373 ft | 128 kts | 247° |
| 2026-04-15 13:08 | 69.74106 | 30.00847 | 1130 ft | 127 kts | 246° |
| 2026-04-15 13:08 | 69.73790 | 29.98440 | 898 ft | 129 kts | 246° |
| 2026-04-15 13:09 | 69.73473 | 29.96023 | 681 ft | 129 kts | 248° |
| 2026-04-15 13:09 | 69.73151 | 29.93608 | 504 ft | 128 kts | 245° |
| 2026-04-15 13:09 | 69.72833 | 29.91215 | 328 ft | 128 kts | 246° |
| 2026-04-15 13:09 | 69.72556 | 29.89098 | 298 ft | 84 kts | 249° |
| 2026-04-15 13:10 | 69.72413 | 29.88022 | 295 ft | 36 kts | 249° |
| 2026-04-15 13:10 | 69.72376 | 29.87651 | 294 ft | 8 kts | 260° |
| 2026-04-15 13:10 | 69.72366 | 29.87652 | 297 ft | 1 kts | 133° |
| 2026-04-15 13:10 | 69.72377 | 29.87753 | 294 ft | 9 kts | 68° |
| 2026-04-15 13:11 | 69.72402 | 29.87941 | 297 ft | 11 kts | 69° |
| 2026-04-15 13:11 | 69.72438 | 29.88218 | 297 ft | 15 kts | 69° |
| 2026-04-15 13:11 | 69.72425 | 29.88419 | 296 ft | 10 kts | 155° |
| 2026-04-15 13:11 | 69.72353 | 29.88494 | 296 ft | 13 kts | 160° |
| 2026-04-15 13:12 | 69.72262 | 29.88600 | 297 ft | 12 kts | 158° |
| 2026-04-15 13:12 | 69.72217 | 29.88630 | 299 ft | 4 kts | 199° |
| 2026-04-15 13:12 | 69.72201 | 29.88542 | 297 ft | 4 kts | 249° |
| 2026-04-15 13:12 | 69.72195 | 29.88496 | 295 ft | 2 kts | 247° |
| 2026-04-15 13:13 | 69.72194 | 29.88492 | 295 ft | 0 kts | 248° |